sensor_id;sensor_type;location;lat;lon;timestamp;temperature;humidity
50758;DHT22;36732;47.980;11.652;2023-07-16T00:01:21;27.60;50.30
50758;DHT22;36732;47.980;11.652;2023-07-16T00:03:46;27.50;50.30
50758;DHT22;36732;47.980;11.652;2023-07-16T00:06:12;27.50;50.30
50758;DHT22;36732;47.980;11.652;2023-07-16T00:08:38;27.50;50.50
50758;DHT22;36732;47.980;11.652;2023-07-16T00:11:04;27.50;50.60
50758;DHT22;36732;47.980;11.652;2023-07-16T00:13:30;27.40;50.60
50758;DHT22;36732;47.980;11.652;2023-07-16T00:15:55;27.40;50.70
50758;DHT22;36732;47.980;11.652;2023-07-16T00:18:21;27.40;50.80
50758;DHT22;36732;47.980;11.652;2023-07-16T00:20:47;27.40;51.00
50758;DHT22;36732;47.980;11.652;2023-07-16T00:23:12;27.30;51.00
50758;DHT22;36732;47.980;11.652;2023-07-16T00:25:38;27.30;51.10
50758;DHT22;36732;47.980;11.652;2023-07-16T00:28:04;27.30;51.20
50758;DHT22;36732;47.980;11.652;2023-07-16T00:30:29;27.30;51.30
50758;DHT22;36732;47.980;11.652;2023-07-16T00:32:55;27.30;51.40
50758;DHT22;36732;47.980;11.652;2023-07-16T00:35:21;27.20;51.40
50758;DHT22;36732;47.980;11.652;2023-07-16T00:37:46;27.20;51.50
50758;DHT22;36732;47.980;11.652;2023-07-16T00:40:12;27.20;51.60
50758;DHT22;36732;47.980;11.652;2023-07-16T00:42:38;27.20;51.80
50758;DHT22;36732;47.980;11.652;2023-07-16T00:45:09;27.20;51.80
50758;DHT22;36732;47.980;11.652;2023-07-16T00:47:39;27.10;52.00
50758;DHT22;36732;47.980;11.652;2023-07-16T00:50:06;27.10;51.90
50758;DHT22;36732;47.980;11.652;2023-07-16T00:52:33;27.10;52.00
50758;DHT22;36732;47.980;11.652;2023-07-16T00:54:58;27.10;52.10
50758;DHT22;36732;47.980;11.652;2023-07-16T00:57:24;27.10;52.20
50758;DHT22;36732;47.980;11.652;2023-07-16T00:59:50;27.00;52.30
50758;DHT22;36732;47.980;11.652;2023-07-16T01:02:16;27.00;52.40
50758;DHT22;36732;47.980;11.652;2023-07-16T01:04:42;27.00;52.40
50758;DHT22;36732;47.980;11.652;2023-07-16T01:07:11;26.90;52.40
50758;DHT22;36732;47.980;11.652;2023-07-16T01:09:41;26.90;52.60
50758;DHT22;36732;47.980;11.652;2023-07-16T01:12:09;26.90;52.70
50758;DHT22;36732;47.980;11.652;2023-07-16T01:14:34;26.90;52.80
50758;DHT22;36732;47.980;11.652;2023-07-16T01:17:07;26.90;52.90
50758;DHT22;36732;47.980;11.652;2023-07-16T01:19:34;26.80;53.00
50758;DHT22;36732;47.980;11.652;2023-07-16T01:30:11;26.70;53.30
50758;DHT22;36732;47.980;11.652;2023-07-16T01:32:42;26.70;53.10
50758;DHT22;36732;47.980;11.652;2023-07-16T01:35:08;26.70;53.20
50758;DHT22;36732;47.980;11.652;2023-07-16T01:37:34;26.70;53.20
50758;DHT22;36732;47.980;11.652;2023-07-16T01:40:01;26.60;53.20
50758;DHT22;36732;47.980;11.652;2023-07-16T01:42:27;26.60;53.30
50758;DHT22;36732;47.980;11.652;2023-07-16T01:44:53;26.60;53.40
50758;DHT22;36732;47.980;11.652;2023-07-16T01:49:54;26.60;53.70
50758;DHT22;36732;47.980;11.652;2023-07-16T01:52:21;26.60;53.60
50758;DHT22;36732;47.980;11.652;2023-07-16T01:54:46;26.60;53.70
50758;DHT22;36732;47.980;11.652;2023-07-16T01:57:13;26.50;53.70
50758;DHT22;36732;47.980;11.652;2023-07-16T01:59:39;26.60;53.90
50758;DHT22;36732;47.980;11.652;2023-07-16T02:02:05;26.50;53.80
50758;DHT22;36732;47.980;11.652;2023-07-16T02:04:31;26.50;53.90
50758;DHT22;36732;47.980;11.652;2023-07-16T02:06:56;26.50;54.00
50758;DHT22;36732;47.980;11.652;2023-07-16T02:09:22;26.50;54.10
50758;DHT22;36732;47.980;11.652;2023-07-16T02:11:48;26.50;54.20
50758;DHT22;36732;47.980;11.652;2023-07-16T02:14:14;26.50;54.20
50758;DHT22;36732;47.980;11.652;2023-07-16T02:16:41;26.50;54.30
50758;DHT22;36732;47.980;11.652;2023-07-16T02:19:07;26.50;54.40
50758;DHT22;36732;47.980;11.652;2023-07-16T02:21:32;26.40;54.40
50758;DHT22;36732;47.980;11.652;2023-07-16T02:23:58;26.40;54.40
50758;DHT22;36732;47.980;11.652;2023-07-16T02:26:24;26.40;54.40
50758;DHT22;36732;47.980;11.652;2023-07-16T02:28:50;26.40;54.60
50758;DHT22;36732;47.980;11.652;2023-07-16T02:31:15;26.40;54.60
50758;DHT22;36732;47.980;11.652;2023-07-16T02:33:41;26.40;54.70
50758;DHT22;36732;47.980;11.652;2023-07-16T02:36:07;26.40;54.70
50758;DHT22;36732;47.980;11.652;2023-07-16T02:38:33;26.40;54.80
50758;DHT22;36732;47.980;11.652;2023-07-16T02:40:58;26.40;54.80
50758;DHT22;36732;47.980;11.652;2023-07-16T02:43:24;26.40;54.90
50758;DHT22;36732;47.980;11.652;2023-07-16T02:45:50;26.30;54.80
50758;DHT22;36732;47.980;11.652;2023-07-16T02:48:16;26.40;55.00
50758;DHT22;36732;47.980;11.652;2023-07-16T02:50:41;26.30;55.00
50758;DHT22;36732;47.980;11.652;2023-07-16T02:53:08;26.30;55.10
50758;DHT22;36732;47.980;11.652;2023-07-16T02:55:36;26.30;55.10
50758;DHT22;36732;47.980;11.652;2023-07-16T02:58:02;26.30;55.30
50758;DHT22;36732;47.980;11.652;2023-07-16T03:00:30;26.30;55.20
50758;DHT22;36732;47.980;11.652;2023-07-16T03:02:57;26.30;55.30
50758;DHT22;36732;47.980;11.652;2023-07-16T03:05:27;26.30;55.40
50758;DHT22;36732;47.980;11.652;2023-07-16T03:07:53;26.30;55.40
50758;DHT22;36732;47.980;11.652;2023-07-16T03:10:20;26.30;55.50
50758;DHT22;36732;47.980;11.652;2023-07-16T03:12:46;26.30;55.50
50758;DHT22;36732;47.980;11.652;2023-07-16T03:15:12;26.30;55.50
50758;DHT22;36732;47.980;11.652;2023-07-16T03:17:38;26.30;55.60
50758;DHT22;36732;47.980;11.652;2023-07-16T03:20:04;26.20;55.70
50758;DHT22;36732;47.980;11.652;2023-07-16T03:22:31;26.20;55.60
50758;DHT22;36732;47.980;11.652;2023-07-16T03:24:57;26.20;55.60
50758;DHT22;36732;47.980;11.652;2023-07-16T03:27:22;26.20;55.70
50758;DHT22;36732;47.980;11.652;2023-07-16T03:29:48;26.20;55.80
50758;DHT22;36732;47.980;11.652;2023-07-16T03:32:14;26.20;55.80
50758;DHT22;36732;47.980;11.652;2023-07-16T03:34:39;26.20;55.90
50758;DHT22;36732;47.980;11.652;2023-07-16T03:37:05;26.20;56.00
50758;DHT22;36732;47.980;11.652;2023-07-16T03:39:31;26.20;56.00
50758;DHT22;36732;47.980;11.652;2023-07-16T03:41:57;26.20;56.10
50758;DHT22;36732;47.980;11.652;2023-07-16T03:44:23;26.20;56.10
50758;DHT22;36732;47.980;11.652;2023-07-16T03:46:48;26.20;56.30
50758;DHT22;36732;47.980;11.652;2023-07-16T03:49:14;26.20;56.20
50758;DHT22;36732;47.980;11.652;2023-07-16T03:51:40;26.20;56.40
50758;DHT22;36732;47.980;11.652;2023-07-16T03:54:05;26.10;56.20
50758;DHT22;36732;47.980;11.652;2023-07-16T03:56:32;26.10;56.30
50758;DHT22;36732;47.980;11.652;2023-07-16T03:58:58;26.10;56.50
50758;DHT22;36732;47.980;11.652;2023-07-16T04:01:24;26.10;56.40
50758;DHT22;36732;47.980;11.652;2023-07-16T04:03:49;26.10;56.40
50758;DHT22;36732;47.980;11.652;2023-07-16T04:06:15;26.10;56.40
50758;DHT22;36732;47.980;11.652;2023-07-16T04:08:41;26.10;56.60
50758;DHT22;36732;47.980;11.652;2023-07-16T04:11:07;26.10;56.70
50758;DHT22;36732;47.980;11.652;2023-07-16T04:13:32;26.10;57.00
50758;DHT22;36732;47.980;11.652;2023-07-16T04:15:59;26.10;57.10
50758;DHT22;36732;47.980;11.652;2023-07-16T04:18:25;26.10;57.00
50758;DHT22;36732;47.980;11.652;2023-07-16T04:20:51;26.00;57.20
50758;DHT22;36732;47.980;11.652;2023-07-16T04:23:17;26.00;57.30
50758;DHT22;36732;47.980;11.652;2023-07-16T04:25:43;26.00;57.30
50758;DHT22;36732;47.980;11.652;2023-07-16T04:28:10;26.00;57.30
50758;DHT22;36732;47.980;11.652;2023-07-16T04:30:36;25.90;57.30
50758;DHT22;36732;47.980;11.652;2023-07-16T04:33:03;25.90;57.30
50758;DHT22;36732;47.980;11.652;2023-07-16T04:35:29;25.90;57.50
50758;DHT22;36732;47.980;11.652;2023-07-16T04:37:55;25.90;57.60
50758;DHT22;36732;47.980;11.652;2023-07-16T04:40:21;25.80;57.70
50758;DHT22;36732;47.980;11.652;2023-07-16T04:42:46;25.80;57.90
50758;DHT22;36732;47.980;11.652;2023-07-16T04:45:13;25.80;58.00
50758;DHT22;36732;47.980;11.652;2023-07-16T04:47:39;25.80;58.10
50758;DHT22;36732;47.980;11.652;2023-07-16T04:50:05;25.70;58.10
50758;DHT22;36732;47.980;11.652;2023-07-16T04:52:31;25.70;58.10
50758;DHT22;36732;47.980;11.652;2023-07-16T04:54:57;25.70;58.10
50758;DHT22;36732;47.980;11.652;2023-07-16T04:57:22;25.70;58.00
50758;DHT22;36732;47.980;11.652;2023-07-16T04:59:48;25.60;57.70
50758;DHT22;36732;47.980;11.652;2023-07-16T05:02:14;25.60;57.80
50758;DHT22;36732;47.980;11.652;2023-07-16T05:04:42;25.60;57.80
50758;DHT22;36732;47.980;11.652;2023-07-16T05:07:09;25.60;58.00
50758;DHT22;36732;47.980;11.652;2023-07-16T05:09:35;25.50;58.20
50758;DHT22;36732;47.980;11.652;2023-07-16T05:12:01;25.50;58.20
50758;DHT22;36732;47.980;11.652;2023-07-16T05:14:28;25.50;58.30
50758;DHT22;36732;47.980;11.652;2023-07-16T05:16:54;25.50;58.40
50758;DHT22;36732;47.980;11.652;2023-07-16T05:19:21;25.50;58.60
50758;DHT22;36732;47.980;11.652;2023-07-16T05:21:47;25.40;58.40
50758;DHT22;36732;47.980;11.652;2023-07-16T05:24:12;25.40;59.00
50758;DHT22;36732;47.980;11.652;2023-07-16T05:26:38;25.40;58.30
50758;DHT22;36732;47.980;11.652;2023-07-16T05:29:04;25.40;58.50
50758;DHT22;36732;47.980;11.652;2023-07-16T05:31:30;25.40;58.50
50758;DHT22;36732;47.980;11.652;2023-07-16T05:33:56;25.40;58.80
50758;DHT22;36732;47.980;11.652;2023-07-16T05:36:21;25.40;59.20
50758;DHT22;36732;47.980;11.652;2023-07-16T05:38:47;25.40;59.20
50758;DHT22;36732;47.980;11.652;2023-07-16T05:41:13;25.40;59.20
50758;DHT22;36732;47.980;11.652;2023-07-16T05:43:38;25.40;59.30
50758;DHT22;36732;47.980;11.652;2023-07-16T05:46:04;25.40;59.40
50758;DHT22;36732;47.980;11.652;2023-07-16T05:48:31;25.40;59.60
50758;DHT22;36732;47.980;11.652;2023-07-16T05:50:57;25.30;60.00
50758;DHT22;36732;47.980;11.652;2023-07-16T05:53:22;25.30;60.00
50758;DHT22;36732;47.980;11.652;2023-07-16T05:55:48;25.40;60.30
50758;DHT22;36732;47.980;11.652;2023-07-16T05:58:15;25.40;60.40
50758;DHT22;36732;47.980;11.652;2023-07-16T06:00:41;25.40;60.70
50758;DHT22;36732;47.980;11.652;2023-07-16T06:03:07;25.40;61.00
50758;DHT22;36732;47.980;11.652;2023-07-16T06:05:33;25.40;61.30
50758;DHT22;36732;47.980;11.652;2023-07-16T06:08:00;25.40;61.00
50758;DHT22;36732;47.980;11.652;2023-07-16T06:10:26;25.40;61.20
50758;DHT22;36732;47.980;11.652;2023-07-16T06:12:52;25.40;61.20
50758;DHT22;36732;47.980;11.652;2023-07-16T06:15:18;25.40;61.10
50758;DHT22;36732;47.980;11.652;2023-07-16T06:17:44;25.40;61.00
50758;DHT22;36732;47.980;11.652;2023-07-16T06:20:09;25.40;60.90
50758;DHT22;36732;47.980;11.652;2023-07-16T06:22:36;25.40;61.20
50758;DHT22;36732;47.980;11.652;2023-07-16T06:25:02;25.40;61.50
50758;DHT22;36732;47.980;11.652;2023-07-16T06:27:27;25.40;61.60
50758;DHT22;36732;47.980;11.652;2023-07-16T06:29:53;25.50;61.60
50758;DHT22;36732;47.980;11.652;2023-07-16T06:32:19;25.40;61.70
50758;DHT22;36732;47.980;11.652;2023-07-16T06:34:45;25.50;61.80
50758;DHT22;36732;47.980;11.652;2023-07-16T06:37:11;25.50;61.80
50758;DHT22;36732;47.980;11.652;2023-07-16T06:39:37;25.50;61.80
50758;DHT22;36732;47.980;11.652;2023-07-16T06:42:03;25.50;61.80
50758;DHT22;36732;47.980;11.652;2023-07-16T06:44:29;25.50;62.00
50758;DHT22;36732;47.980;11.652;2023-07-16T06:46:54;25.50;62.30
50758;DHT22;36732;47.980;11.652;2023-07-16T06:49:21;25.50;62.10
50758;DHT22;36732;47.980;11.652;2023-07-16T06:51:47;25.50;62.40
50758;DHT22;36732;47.980;11.652;2023-07-16T06:54:12;25.50;62.40
50758;DHT22;36732;47.980;11.652;2023-07-16T06:56:38;25.50;62.50
50758;DHT22;36732;47.980;11.652;2023-07-16T06:59:04;25.50;62.70
50758;DHT22;36732;47.980;11.652;2023-07-16T07:01:30;25.50;62.60
50758;DHT22;36732;47.980;11.652;2023-07-16T07:03:56;25.60;62.70
50758;DHT22;36732;47.980;11.652;2023-07-16T07:06:22;25.60;62.70
50758;DHT22;36732;47.980;11.652;2023-07-16T07:08:47;25.60;62.90
50758;DHT22;36732;47.980;11.652;2023-07-16T07:11:13;25.60;63.30
50758;DHT22;36732;47.980;11.652;2023-07-16T07:13:39;25.60;62.80
50758;DHT22;36732;47.980;11.652;2023-07-16T07:16:05;25.60;62.40
50758;DHT22;36732;47.980;11.652;2023-07-16T07:18:30;25.60;62.30
50758;DHT22;36732;47.980;11.652;2023-07-16T07:20:56;25.60;62.50
50758;DHT22;36732;47.980;11.652;2023-07-16T07:23:22;25.60;62.50
50758;DHT22;36732;47.980;11.652;2023-07-16T07:25:51;25.60;62.40
50758;DHT22;36732;47.980;11.652;2023-07-16T07:28:18;25.60;62.70
50758;DHT22;36732;47.980;11.652;2023-07-16T07:30:45;25.70;62.60
50758;DHT22;36732;47.980;11.652;2023-07-16T07:33:11;25.70;62.50
50758;DHT22;36732;47.980;11.652;2023-07-16T07:35:37;25.70;62.60
50758;DHT22;36732;47.980;11.652;2023-07-16T07:38:03;25.70;62.60
50758;DHT22;36732;47.980;11.652;2023-07-16T07:40:29;25.70;62.70
50758;DHT22;36732;47.980;11.652;2023-07-16T07:42:54;25.60;62.20
50758;DHT22;36732;47.980;11.652;2023-07-16T07:45:20;25.60;62.20
50758;DHT22;36732;47.980;11.652;2023-07-16T07:47:46;25.70;61.80
50758;DHT22;36732;47.980;11.652;2023-07-16T07:50:12;25.70;61.90
50758;DHT22;36732;47.980;11.652;2023-07-16T07:52:37;25.70;61.50
50758;DHT22;36732;47.980;11.652;2023-07-16T07:55:04;25.70;61.00
50758;DHT22;36732;47.980;11.652;2023-07-16T07:57:30;25.60;61.30
50758;DHT22;36732;47.980;11.652;2023-07-16T07:59:55;25.60;61.30
50758;DHT22;36732;47.980;11.652;2023-07-16T08:02:24;25.60;61.80
50758;DHT22;36732;47.980;11.652;2023-07-16T08:04:52;25.70;61.80
50758;DHT22;36732;47.980;11.652;2023-07-16T08:07:18;25.70;62.00
50758;DHT22;36732;47.980;11.652;2023-07-16T08:09:44;25.70;61.00
50758;DHT22;36732;47.980;11.652;2023-07-16T08:12:11;25.60;60.60
50758;DHT22;36732;47.980;11.652;2023-07-16T08:14:36;25.70;60.60
50758;DHT22;36732;47.980;11.652;2023-07-16T08:17:02;25.60;60.30
50758;DHT22;36732;47.980;11.652;2023-07-16T08:19:28;25.60;60.10
50758;DHT22;36732;47.980;11.652;2023-07-16T08:21:54;25.60;59.80
50758;DHT22;36732;47.980;11.652;2023-07-16T08:24:19;25.60;59.80
50758;DHT22;36732;47.980;11.652;2023-07-16T08:26:45;25.60;59.40
50758;DHT22;36732;47.980;11.652;2023-07-16T08:29:11;25.60;59.40
50758;DHT22;36732;47.980;11.652;2023-07-16T08:31:36;25.70;59.60
50758;DHT22;36732;47.980;11.652;2023-07-16T08:34:02;25.60;60.00
50758;DHT22;36732;47.980;11.652;2023-07-16T08:36:28;25.60;60.00
50758;DHT22;36732;47.980;11.652;2023-07-16T08:38:54;25.70;59.40
50758;DHT22;36732;47.980;11.652;2023-07-16T08:41:19;25.70;59.20
50758;DHT22;36732;47.980;11.652;2023-07-16T08:43:48;25.70;59.30
50758;DHT22;36732;47.980;11.652;2023-07-16T08:46:15;25.60;59.40
50758;DHT22;36732;47.980;11.652;2023-07-16T08:48:41;25.70;59.20
50758;DHT22;36732;47.980;11.652;2023-07-16T08:51:09;25.70;59.30
50758;DHT22;36732;47.980;11.652;2023-07-16T08:53:36;25.70;59.40
50758;DHT22;36732;47.980;11.652;2023-07-16T08:56:02;25.70;59.20
50758;DHT22;36732;47.980;11.652;2023-07-16T08:58:31;25.70;59.30
50758;DHT22;36732;47.980;11.652;2023-07-16T09:00:58;25.70;59.40
50758;DHT22;36732;47.980;11.652;2023-07-16T09:03:24;25.70;59.20
50758;DHT22;36732;47.980;11.652;2023-07-16T09:05:50;25.70;59.40
50758;DHT22;36732;47.980;11.652;2023-07-16T09:08:16;25.70;59.50
50758;DHT22;36732;47.980;11.652;2023-07-16T09:10:43;25.70;59.10
50758;DHT22;36732;47.980;11.652;2023-07-16T09:13:09;25.70;58.90
50758;DHT22;36732;47.980;11.652;2023-07-16T09:15:36;25.80;58.40
50758;DHT22;36732;47.980;11.652;2023-07-16T09:18:03;25.80;58.50
50758;DHT22;36732;47.980;11.652;2023-07-16T09:20:29;25.70;58.70
50758;DHT22;36732;47.980;11.652;2023-07-16T09:22:56;25.80;59.00
50758;DHT22;36732;47.980;11.652;2023-07-16T09:25:29;25.70;58.60
50758;DHT22;36732;47.980;11.652;2023-07-16T09:27:57;25.80;59.00
50758;DHT22;36732;47.980;11.652;2023-07-16T09:30:23;25.80;58.40
50758;DHT22;36732;47.980;11.652;2023-07-16T09:32:49;25.80;58.50
50758;DHT22;36732;47.980;11.652;2023-07-16T09:35:16;25.80;58.60
50758;DHT22;36732;47.980;11.652;2023-07-16T09:37:43;25.80;58.50
50758;DHT22;36732;47.980;11.652;2023-07-16T09:40:11;25.80;58.30
50758;DHT22;36732;47.980;11.652;2023-07-16T09:42:38;25.80;58.50
50758;DHT22;36732;47.980;11.652;2023-07-16T09:45:13;25.80;58.50
50758;DHT22;36732;47.980;11.652;2023-07-16T09:47:42;25.80;58.20
50758;DHT22;36732;47.980;11.652;2023-07-16T09:50:08;25.80;58.50
50758;DHT22;36732;47.980;11.652;2023-07-16T09:52:34;25.90;58.00
50758;DHT22;36732;47.980;11.652;2023-07-16T09:55:03;25.90;57.80
50758;DHT22;36732;47.980;11.652;2023-07-16T09:57:35;25.90;57.30
50758;DHT22;36732;47.980;11.652;2023-07-16T10:00:08;25.90;57.30
50758;DHT22;36732;47.980;11.652;2023-07-16T10:02:38;25.90;57.30
50758;DHT22;36732;47.980;11.652;2023-07-16T10:07:50;25.90;56.90
50758;DHT22;36732;47.980;11.652;2023-07-16T10:10:17;26.00;56.90
50758;DHT22;36732;47.980;11.652;2023-07-16T10:12:43;26.00;57.30
50758;DHT22;36732;47.980;11.652;2023-07-16T10:15:28;26.00;57.30
50758;DHT22;36732;47.980;11.652;2023-07-16T10:17:55;26.00;56.80
50758;DHT22;36732;47.980;11.652;2023-07-16T10:20:34;26.00;56.90
50758;DHT22;36732;47.980;11.652;2023-07-16T10:23:15;26.00;56.80
50758;DHT22;36732;47.980;11.652;2023-07-16T10:25:58;26.10;56.20
50758;DHT22;36732;47.980;11.652;2023-07-16T10:28:24;26.10;55.70
50758;DHT22;36732;47.980;11.652;2023-07-16T10:30:50;26.10;55.80
50758;DHT22;36732;47.980;11.652;2023-07-16T10:33:17;26.10;55.70
50758;DHT22;36732;47.980;11.652;2023-07-16T10:35:44;26.10;55.80
50758;DHT22;36732;47.980;11.652;2023-07-16T10:38:11;26.10;55.90
50758;DHT22;36732;47.980;11.652;2023-07-16T10:40:44;26.10;56.00
50758;DHT22;36732;47.980;11.652;2023-07-16T10:43:10;26.10;55.90
50758;DHT22;36732;47.980;11.652;2023-07-16T10:45:36;26.20;56.00
50758;DHT22;36732;47.980;11.652;2023-07-16T10:48:02;26.20;56.00
50758;DHT22;36732;47.980;11.652;2023-07-16T10:50:31;26.20;56.00
50758;DHT22;36732;47.980;11.652;2023-07-16T10:52:57;26.20;56.00
50758;DHT22;36732;47.980;11.652;2023-07-16T10:55:25;26.20;56.10
50758;DHT22;36732;47.980;11.652;2023-07-16T10:57:52;26.20;56.10
50758;DHT22;36732;47.980;11.652;2023-07-16T11:00:20;26.20;55.70
50758;DHT22;36732;47.980;11.652;2023-07-16T11:02:46;26.20;55.10
50758;DHT22;36732;47.980;11.652;2023-07-16T11:05:13;26.20;55.20
50758;DHT22;36732;47.980;11.652;2023-07-16T11:07:47;26.20;55.30
50758;DHT22;36732;47.980;11.652;2023-07-16T11:10:15;26.30;55.50
50758;DHT22;36732;47.980;11.652;2023-07-16T11:12:41;26.30;55.80
50758;DHT22;36732;47.980;11.652;2023-07-16T11:15:08;26.30;56.50
50758;DHT22;36732;47.980;11.652;2023-07-16T11:17:36;26.30;55.90
50758;DHT22;36732;47.980;11.652;2023-07-16T11:20:02;26.30;55.80
50758;DHT22;36732;47.980;11.652;2023-07-16T11:22:29;26.30;55.50
50758;DHT22;36732;47.980;11.652;2023-07-16T11:24:55;26.40;55.90
50758;DHT22;36732;47.980;11.652;2023-07-16T11:27:30;26.40;55.70
50758;DHT22;36732;47.980;11.652;2023-07-16T11:29:58;26.40;55.30
50758;DHT22;36732;47.980;11.652;2023-07-16T11:32:32;26.40;55.40
50758;DHT22;36732;47.980;11.652;2023-07-16T11:35:05;26.40;55.40
50758;DHT22;36732;47.980;11.652;2023-07-16T11:37:35;26.40;55.50
50758;DHT22;36732;47.980;11.652;2023-07-16T11:42:36;26.40;55.40
50758;DHT22;36732;47.980;11.652;2023-07-16T11:45:03;26.40;55.00
50758;DHT22;36732;47.980;11.652;2023-07-16T11:47:31;26.50;55.10
50758;DHT22;36732;47.980;11.652;2023-07-16T11:49:58;26.50;54.90
50758;DHT22;36732;47.980;11.652;2023-07-16T11:52:26;26.50;54.80
50758;DHT22;36732;47.980;11.652;2023-07-16T11:54:54;26.50;54.90
50758;DHT22;36732;47.980;11.652;2023-07-16T11:57:21;26.50;55.40
50758;DHT22;36732;47.980;11.652;2023-07-16T11:59:48;26.50;55.00
50758;DHT22;36732;47.980;11.652;2023-07-16T12:02:13;26.50;55.10
50758;DHT22;36732;47.980;11.652;2023-07-16T12:04:40;26.50;54.50
50758;DHT22;36732;47.980;11.652;2023-07-16T12:07:06;26.50;54.60
50758;DHT22;36732;47.980;11.652;2023-07-16T12:09:32;26.50;54.80
50758;DHT22;36732;47.980;11.652;2023-07-16T12:11:58;26.50;54.70
50758;DHT22;36732;47.980;11.652;2023-07-16T12:14:25;26.60;54.80
50758;DHT22;36732;47.980;11.652;2023-07-16T12:16:50;26.60;54.80
50758;DHT22;36732;47.980;11.652;2023-07-16T12:19:16;26.60;54.80
50758;DHT22;36732;47.980;11.652;2023-07-16T12:21:42;26.60;54.70
50758;DHT22;36732;47.980;11.652;2023-07-16T12:24:07;26.60;54.50
50758;DHT22;36732;47.980;11.652;2023-07-16T12:26:33;26.60;54.50
50758;DHT22;36732;47.980;11.652;2023-07-16T12:29:00;26.60;54.40
50758;DHT22;36732;47.980;11.652;2023-07-16T12:31:30;26.60;54.50
50758;DHT22;36732;47.980;11.652;2023-07-16T12:33:57;26.60;54.70
50758;DHT22;36732;47.980;11.652;2023-07-16T12:36:23;26.60;54.90
50758;DHT22;36732;47.980;11.652;2023-07-16T12:38:48;26.60;55.10
50758;DHT22;36732;47.980;11.652;2023-07-16T12:41:14;26.60;55.00
50758;DHT22;36732;47.980;11.652;2023-07-16T12:43:42;26.60;54.80
50758;DHT22;36732;47.980;11.652;2023-07-16T12:46:08;26.60;54.80
50758;DHT22;36732;47.980;11.652;2023-07-16T12:48:34;26.60;54.90
50758;DHT22;36732;47.980;11.652;2023-07-16T12:51:00;26.60;55.10
50758;DHT22;36732;47.980;11.652;2023-07-16T12:53:26;26.60;55.00
50758;DHT22;36732;47.980;11.652;2023-07-16T12:55:52;26.60;55.00
50758;DHT22;36732;47.980;11.652;2023-07-16T12:58:18;26.60;54.90
50758;DHT22;36732;47.980;11.652;2023-07-16T13:00:44;26.60;54.80
50758;DHT22;36732;47.980;11.652;2023-07-16T13:03:10;26.60;54.90
50758;DHT22;36732;47.980;11.652;2023-07-16T13:05:38;26.60;54.90
50758;DHT22;36732;47.980;11.652;2023-07-16T13:08:04;26.60;55.00
50758;DHT22;36732;47.980;11.652;2023-07-16T13:10:30;26.60;55.00
50758;DHT22;36732;47.980;11.652;2023-07-16T13:12:56;26.60;55.00
50758;DHT22;36732;47.980;11.652;2023-07-16T13:15:21;26.60;55.00
50758;DHT22;36732;47.980;11.652;2023-07-16T13:17:47;26.70;54.70
50758;DHT22;36732;47.980;11.652;2023-07-16T13:20:13;26.70;54.70
50758;DHT22;36732;47.980;11.652;2023-07-16T13:22:39;26.60;54.70
50758;DHT22;36732;47.980;11.652;2023-07-16T13:25:05;26.70;54.80
50758;DHT22;36732;47.980;11.652;2023-07-16T13:27:31;26.70;54.60
50758;DHT22;36732;47.980;11.652;2023-07-16T13:29:57;26.70;54.70
50758;DHT22;36732;47.980;11.652;2023-07-16T13:32:23;26.70;54.80
50758;DHT22;36732;47.980;11.652;2023-07-16T13:34:49;26.70;54.80
50758;DHT22;36732;47.980;11.652;2023-07-16T13:37:15;26.70;54.80
50758;DHT22;36732;47.980;11.652;2023-07-16T13:39:41;26.60;54.80
50758;DHT22;36732;47.980;11.652;2023-07-16T13:42:07;26.70;55.00
50758;DHT22;36732;47.980;11.652;2023-07-16T13:44:33;26.70;55.00
50758;DHT22;36732;47.980;11.652;2023-07-16T13:46:59;26.70;55.20
50758;DHT22;36732;47.980;11.652;2023-07-16T13:49:24;26.70;55.20
50758;DHT22;36732;47.980;11.652;2023-07-16T13:51:50;26.70;55.20
50758;DHT22;36732;47.980;11.652;2023-07-16T13:54:16;26.70;55.10
50758;DHT22;36732;47.980;11.652;2023-07-16T13:56:42;26.70;55.10
50758;DHT22;36732;47.980;11.652;2023-07-16T13:59:07;26.70;55.00
50758;DHT22;36732;47.980;11.652;2023-07-16T14:01:37;26.70;55.20
50758;DHT22;36732;47.980;11.652;2023-07-16T14:04:03;26.70;55.10
50758;DHT22;36732;47.980;11.652;2023-07-16T14:06:29;26.70;55.00
50758;DHT22;36732;47.980;11.652;2023-07-16T14:08:55;26.80;55.00
50758;DHT22;36732;47.980;11.652;2023-07-16T14:11:22;26.80;55.10
50758;DHT22;36732;47.980;11.652;2023-07-16T14:13:48;26.80;55.00
50758;DHT22;36732;47.980;11.652;2023-07-16T14:16:17;26.80;55.00
50758;DHT22;36732;47.980;11.652;2023-07-16T14:18:43;26.80;54.90
50758;DHT22;36732;47.980;11.652;2023-07-16T14:21:09;26.90;54.80
50758;DHT22;36732;47.980;11.652;2023-07-16T14:23:35;26.90;54.90
50758;DHT22;36732;47.980;11.652;2023-07-16T14:26:01;26.90;54.90
50758;DHT22;36732;47.980;11.652;2023-07-16T14:28:28;26.90;54.90
50758;DHT22;36732;47.980;11.652;2023-07-16T14:30:54;27.00;55.10
50758;DHT22;36732;47.980;11.652;2023-07-16T14:33:21;27.00;55.20
50758;DHT22;36732;47.980;11.652;2023-07-16T14:35:47;27.00;55.20
50758;DHT22;36732;47.980;11.652;2023-07-16T14:38:13;27.00;55.10
50758;DHT22;36732;47.980;11.652;2023-07-16T14:40:38;27.00;54.90
50758;DHT22;36732;47.980;11.652;2023-07-16T14:43:05;27.00;54.80
50758;DHT22;36732;47.980;11.652;2023-07-16T14:45:31;27.00;54.80
50758;DHT22;36732;47.980;11.652;2023-07-16T14:47:58;27.00;54.80
50758;DHT22;36732;47.980;11.652;2023-07-16T14:50:24;27.00;54.90
50758;DHT22;36732;47.980;11.652;2023-07-16T14:52:49;27.10;54.90
50758;DHT22;36732;47.980;11.652;2023-07-16T14:55:15;27.00;54.80
50758;DHT22;36732;47.980;11.652;2023-07-16T14:57:41;27.00;54.70
50758;DHT22;36732;47.980;11.652;2023-07-16T15:00:07;27.00;54.60
50758;DHT22;36732;47.980;11.652;2023-07-16T15:02:37;27.00;54.60
50758;DHT22;36732;47.980;11.652;2023-07-16T15:05:04;27.00;54.80
50758;DHT22;36732;47.980;11.652;2023-07-16T15:07:30;27.00;54.90
50758;DHT22;36732;47.980;11.652;2023-07-16T15:09:56;27.00;54.90
50758;DHT22;36732;47.980;11.652;2023-07-16T15:12:22;27.00;54.80
50758;DHT22;36732;47.980;11.652;2023-07-16T15:14:48;27.00;55.00
50758;DHT22;36732;47.980;11.652;2023-07-16T15:17:13;27.00;54.90
50758;DHT22;36732;47.980;11.652;2023-07-16T15:19:39;26.90;55.00
50758;DHT22;36732;47.980;11.652;2023-07-16T15:22:06;27.00;55.20
50758;DHT22;36732;47.980;11.652;2023-07-16T15:24:32;27.00;55.40
50758;DHT22;36732;47.980;11.652;2023-07-16T15:26:58;27.00;55.50